CheckWX is a tool to help pilots better visualize weather data.  It is not intended as a substitute for an official pre-flight weather briefing.

11:45:14 UTC

EGHI METAR
Southampton Airport
Southampton, United Kingdom
Current

25 mins ago

EGHI 271120Z 20008KT 170V230 9999 FEW012 BKN016 10/08 Q1001
Observed
Jan-27 @ 11:20 UTC
Wind
  • 200° at 8 KTS
Visibility
10,000+ meters
Flight Rules
MVFR
Cloud Levels
  • Few at 1,200' AGL
  • Broken at 1,600' AGL
Temperature
10°C / 50°F
Dewpoint
C / 46°F
Humidity
88%
Altimeter
29.56" Hg
Pressure
1000.92 hPa
Previous

55 mins ago

EGHI 271050Z 20007KT 9999 SCT013 SCT020 10/07 Q1002
Observed
Jan-27 @ 10:50 UTC
Wind
  • 200° at 7 KTS
Visibility
10,000+ meters
Flight Rules
VFR
Cloud Levels
  • Scattered at 1,300' AGL
  • Scattered at 2,000' AGL
Temperature
10°C / 50°F
Dewpoint
C / 45°F
Humidity
82%
Altimeter
29.59" Hg
Pressure
1001.92 hPa
Previous

1 hour ago

EGHI 271020Z VRB03KT 9999 FEW014 SCT020 09/07 Q1002
Observed
Jan-27 @ 10:20 UTC
Wind
  • Variable at 3 KTS
Visibility
10,000+ meters
Flight Rules
VFR
Cloud Levels
  • Few at 1,400' AGL
  • Scattered at 2,000' AGL
Temperature
C / 48°F
Dewpoint
C / 45°F
Humidity
87%
Altimeter
29.59" Hg
Pressure
1001.92 hPa